Time;durP1;ratioP1;P1;durP2;ratioP2;P2;SDS_P1;SDS_P2;PMS_P1;PMS_P2;Temp;Humidity;BMP_temperature;BMP_pressure;BME280_temperature;BME280_humidity;BME280_pressure;Samples;Min_cycle;Max_cycle;Signal;HPM_P1;HPM_P2
2024/01/01 00:00:21;;;;;;;;;10.25;7.50;;;;;9.20;66.76;100227.63;5054838;28;45486;-64
2024/01/01 00:03:00;;;;;;;;;8.00;3.25;;;;;8.94;66.63;100191.91;5055816;28;45448;-66
2024/01/01 00:05:31;;;;;;;;;7.00;5.25;;;;;9.03;66.72;100199.75;5053492;28;45573;-62
2024/01/01 00:07:57;;;;;;;;;5.50;3.25;;;;;9.06;66.57;100206.72;5055748;28;45680;-63
2024/01/01 00:10:22;;;;;;;;;5.00;3.25;;;;;9.15;66.32;100219.78;5054967;28;45454;-66
2024/01/01 00:12:52;;;;;;;;;9.25;4.50;;;;;8.77;66.74;100168.41;5054568;28;46068;-61
2024/01/01 00:15:18;;;;;;;;;7.00;3.25;;;;;8.85;66.46;100178.84;5052255;28;45787;-65
2024/01/01 00:17:43;;;;;;;;;8.25;5.75;;;;;9.09;66.61;100220.66;5037884;28;46030;-61
2024/01/01 00:20:10;;;;;;;;;12.50;5.00;;;;;9.12;66.71;100210.19;5053594;28;45476;-68
2024/01/01 00:22:44;;;;;;;;;8.00;4.00;;;;;9.12;66.84;100215.44;5053582;28;45951;-67
2024/01/01 00:25:10;;;;;;;;;6.25;3.25;;;;;9.11;67.24;100223.25;5053592;28;45336;-65
2024/01/01 00:27:36;;;;;;;;;7.50;3.50;;;;;8.80;66.65;100159.69;5053805;28;45517;-64
2024/01/01 00:30:02;;;;;;;;;5.75;3.00;;;;;9.05;66.73;100218.03;5054908;28;45444;-64
2024/01/01 00:32:27;;;;;;;;;6.25;5.00;;;;;9.08;66.88;100228.50;5053419;28;46155;-65
2024/01/01 00:34:53;;;;;;;;;5.50;4.75;;;;;9.09;66.65;100220.66;5054141;28;45379;-67
2024/01/01 00:37:22;;;;;;;;;4.25;4.25;;;;;9.06;67.04;100220.66;5053539;28;45280;-62
2024/01/01 00:39:48;;;;;;;;;4.75;2.50;;;;;8.80;66.97;100168.41;5054996;28;46041;-63
2024/01/01 00:42:25;;;;;;;;;6.25;2.00;;;;;9.00;67.18;100196.28;5049181;28;46208;-63
2024/01/01 00:44:51;;;;;;;;;9.75;4.50;;;;;9.10;66.75;100227.63;5036826;28;45472;-62
2024/01/01 00:47:16;;;;;;;;;9.50;5.00;;;;;9.12;66.97;100223.25;5035290;28;45426;-63
2024/01/01 00:49:42;;;;;;;;;4.00;1.00;;;;;9.10;67.11;100227.63;5054192;28;45505;-62
2024/01/01 00:52:09;;;;;;;;;5.00;2.75;;;;;9.05;66.86;100207.59;5054471;28;46555;-64
2024/01/01 00:54:34;;;;;;;;;4.25;3.00;;;;;9.08;67.09;100225.88;5053834;28;45469;-64
2024/01/01 00:57:05;;;;;;;;;6.25;4.25;;;;;9.03;67.31;100211.94;5054897;28;45344;-62
2024/01/01 00:59:30;;;;;;;;;6.50;2.75;;;;;8.97;67.21;100201.47;5053712;28;45781;-62
2024/01/01 01:02:02;;;;;;;;;8.00;4.25;;;;;9.07;67.62;100217.16;5054353;28;45882;-61
2024/01/01 01:04:29;;;;;;;;;10.50;6.25;;;;;8.89;67.39;100193.66;5052565;28;45523;-62
2024/01/01 01:06:55;;;;;;;;;6.75;3.25;;;;;9.01;67.47;100216.28;5054152;28;45395;-62
2024/01/01 01:09:24;;;;;;;;;11.75;4.50;;;;;8.82;67.02;100184.09;5054259;28;45560;-63
2024/01/01 01:11:50;;;;;;;;;3.00;2.25;;;;;8.78;67.19;100174.50;5053714;28;46185;-62
2024/01/01 01:14:15;;;;;;;;;9.25;4.00;;;;;8.99;67.24;100208.44;5051992;28;45449;-64
2024/01/01 01:16:41;;;;;;;;;5.75;4.00;;;;;8.91;67.52;100197.16;5054769;28;45350;-63
2024/01/01 01:19:06;;;;;;;;;7.25;3.50;;;;;8.92;67.47;100191.03;5053925;28;45387;-64
2024/01/01 01:21:32;;;;;;;;;10.00;4.25;;;;;9.05;66.80;100213.69;5051949;28;45570;-63
2024/01/01 01:23:58;;;;;;;;;8.25;4.00;;;;;8.72;67.00;100164.94;5054282;28;45567;-64
2024/01/01 01:26:25;;;;;;;;;8.75;3.00;;;;;8.88;67.20;100195.41;5052039;28;45461;-61
2024/01/01 01:28:51;;;;;;;;;4.25;2.25;;;;;8.99;67.02;100205.84;5055472;28;45403;-68
2024/01/01 01:31:17;;;;;;;;;4.25;3.75;;;;;8.81;66.87;100177.13;5056221;28;45525;-69
2024/01/01 01:33:42;;;;;;;;;6.50;3.75;;;;;8.95;66.83;100196.28;5056576;28;45461;-68
2024/01/01 01:36:14;;;;;;;;;8.25;4.50;;;;;8.77;66.83;100176.25;5056501;28;45427;-62
2024/01/01 01:38:39;;;;;;;;;7.50;3.75;;;;;8.70;66.82;100180.59;5057482;28;45615;-64
2024/01/01 01:41:05;;;;;;;;;4.25;2.75;;;;;8.90;67.75;100211.94;5056323;28;46000;-64
2024/01/01 01:43:31;;;;;;;;;6.50;3.00;;;;;8.93;67.36;100205.00;5056821;28;45635;-63
2024/01/01 01:45:59;;;;;;;;;4.25;4.25;;;;;9.08;67.08;100244.16;5056786;28;45504;-62
2024/01/01 01:48:26;;;;;;;;;4.00;2.75;;;;;8.98;66.79;100227.63;5058792;28;45347;-63
2024/01/01 01:50:52;;;;;;;;;4.00;4.00;;;;;8.57;66.96;100163.19;5056572;28;46259;-62
2024/01/01 01:53:23;;;;;;;;;8.50;3.25;;;;;9.01;66.86;100251.13;5055700;28;45552;-62
2024/01/01 01:55:52;;;;;;;;;5.75;3.75;;;;;8.76;67.20;100215.44;5038523;28;45479;-61
2024/01/01 01:58:22;;;;;;;;;6.00;3.00;;;;;8.55;67.43;100188.41;5057236;28;45541;-62
2024/01/01 02:00:50;;;;;;;;;5.00;3.25;;;;;8.75;67.05;100238.03;5057174;28;46319;-64
2024/01/01 02:03:15;;;;;;;;;8.50;5.75;;;;;8.68;67.11;100223.22;5038219;28;45859;-62
2024/01/01 02:05:42;;;;;;;;;10.00;7.00;;;;;8.94;69.15;100261.56;5056490;28;45787;-62
2024/01/01 02:08:09;;;;;;;;;4.75;4.00;;;;;8.72;67.35;100222.38;5056759;28;45464;-65
2024/01/01 02:10:35;;;;;;;;;6.50;4.75;;;;;8.19;66.66;100152.66;5056526;28;45514;-66
2024/01/01 02:13:00;;;;;;;;;9.00;6.00;;;;;8.83;67.11;100246.75;5056207;28;45572;-61
2024/01/01 02:15:27;;;;;;;;;6.50;3.00;;;;;8.78;66.50;100230.22;5056372;28;45350;-61
2024/01/01 02:17:59;;;;;;;;;4.00;3.00;;;;;8.90;66.35;100261.56;5057044;28;45628;-63
2024/01/01 02:20:25;;;;;;;;;7.75;3.50;;;;;8.74;66.62;100231.09;5033843;28;45473;-62
2024/01/01 02:22:56;;;;;;;;;3.00;3.00;;;;;8.93;66.74;100281.59;5050970;28;45597;-62
2024/01/01 02:25:25;;;;;;;;;8.00;4.25;;;;;8.66;66.79;100240.63;5042868;28;45331;-61
2024/01/01 02:27:51;;;;;;;;;6.25;2.50;;;;;8.46;66.91;100211.88;5048406;28;45379;-61
2024/01/01 02:30:25;;;;;;;;;4.50;4.25;;;;;8.20;66.82;100159.59;5051346;28;46244;-63
2024/01/01 02:32:52;;;;;;;;;5.75;3.50;;;;;8.61;66.41;100237.13;5040008;28;45506;-63
2024/01/01 02:35:18;;;;;;;;;7.25;2.25;;;;;8.89;66.79;100287.69;5039009;28;45581;-63
2024/01/01 02:38:29;;;;;;;;;5.00;3.50;;;;;8.88;66.68;100283.34;5025866;28;46539;-62
2024/01/01 02:40:55;;;;;;;;;9.25;4.00;;;;;8.87;66.04;100292.03;5027186;28;46910;-62
2024/01/01 02:43:20;;;;;;;;;4.75;2.75;;;;;8.47;66.34;100224.06;5045143;28;45326;-66
2024/01/01 02:46:49;;;;;;;;;5.00;4.00;;;;;8.58;66.36;100244.97;5047964;28;45557;-62
2024/01/01 02:49:15;;;;;;;;;6.25;2.00;;;;;8.84;66.15;100292.03;5028285;28;45392;-67
2024/01/01 02:51:55;;;;;;;;;5.50;3.00;;;;;8.79;66.34;100289.41;5035664;28;46327;-63
2024/01/01 02:54:24;;;;;;;;;6.00;2.75;;;;;8.60;66.01;100261.50;5040572;28;45373;-67
2024/01/01 02:56:50;;;;;;;;;3.50;1.50;;;;;8.81;66.25;100290.28;5032904;28;45449;-65
2024/01/01 02:59:16;;;;;;;;;5.00;3.00;;;;;8.83;66.07;100293.78;5041296;28;45520;-66
2024/01/01 03:01:42;;;;;;;;;6.50;3.00;;;;;8.32;66.27;100211.81;5036958;28;46172;-65
2024/01/01 03:04:08;;;;;;;;;4.25;2.00;;;;;8.84;66.17;100299.84;5037196;28;45503;-66
2024/01/01 03:06:33;;;;;;;;;4.50;1.00;;;;;8.72;65.88;100279.81;5038020;28;45369;-63
2024/01/01 03:08:59;;;;;;;;;7.50;2.00;;;;;8.63;65.89;100267.59;5022260;28;45473;-64
2024/01/01 03:11:27;;;;;;;;;4.50;3.00;;;;;8.60;66.07;100272.81;5039668;28;45470;-67
2024/01/01 03:13:53;;;;;;;;;3.75;3.00;;;;;8.69;65.88;100285.03;5051605;28;45458;-65
2024/01/01 03:16:18;;;;;;;;;6.00;4.00;;;;;8.85;65.75;100306.81;5039381;28;45763;-65
2024/01/01 03:18:44;;;;;;;;;4.25;3.00;;;;;8.87;65.65;100319.03;5039672;28;45507;-66
2024/01/01 03:21:09;;;;;;;;;7.50;3.00;;;;;8.71;65.78;100288.53;5045418;28;46037;-66
2024/01/01 03:23:35;;;;;;;;;4.25;4.00;;;;;8.69;65.77;100285.03;5059634;28;45676;-63
2024/01/01 03:26:01;;;;;;;;;6.50;3.00;;;;;8.81;65.69;100300.72;5059549;28;45496;-62
2024/01/01 03:28:27;;;;;;;;;4.00;2.25;;;;;8.91;65.53;100315.53;5059705;28;45259;-64
2024/01/01 03:30:52;;;;;;;;;5.00;2.00;;;;;8.87;65.42;100324.25;5040650;28;46767;-64
2024/01/01 03:33:18;;;;;;;;;4.00;1.00;;;;;8.85;65.37;100323.38;5059868;28;45425;-64
2024/01/01 03:35:45;;;;;;;;;1.50;1.00;;;;;8.79;65.48;100318.13;5058684;28;45467;-63
2024/01/01 03:38:11;;;;;;;;;5.00;3.00;;;;;8.89;65.22;100332.94;5058338;28;45486;-63
2024/01/01 03:40:40;;;;;;;;;3.50;3.50;;;;;8.84;65.25;100333.81;5058918;28;45828;-63
2024/01/01 03:43:13;;;;;;;;;4.75;2.00;;;;;8.82;65.21;100340.75;5058766;28;45431;-64
2024/01/01 03:45:38;;;;;;;;;6.25;2.00;;;;;8.78;65.09;100337.28;5060015;28;45423;-68
2024/01/01 03:48:13;;;;;;;;;4.75;2.25;;;;;8.60;65.15;100298.06;5059589;28;45406;-62
2024/01/01 03:50:39;;;;;;;;;6.00;3.00;;;;;8.05;64.93;100216.06;5058067;28;45556;-62
2024/01/01 03:53:04;;;;;;;;;7.00;4.00;;;;;8.61;65.11;100337.25;5059475;28;45447;-62
2024/01/01 03:55:30;;;;;;;;;3.00;3.00;;;;;8.49;65.07;100322.41;5059956;28;45526;-63
2024/01/01 03:57:57;;;;;;;;;4.00;0.00;;;;;8.61;65.21;100341.56;5041076;28;45248;-62
2024/01/01 04:00:26;;;;;;;;;4.75;3.00;;;;;8.42;65.31;100323.25;5058242;28;45582;-61
2024/01/01 04:02:52;;;;;;;;;7.00;3.75;;;;;8.61;65.00;100346.78;5039924;28;45509;-63
2024/01/01 04:05:17;;;;;;;;;7.25;2.00;;;;;8.73;65.01;100357.25;5058709;28;45410;-62
2024/01/01 04:07:43;;;;;;;;;7.25;3.00;;;;;8.53;64.65;100336.31;5058884;28;45386;-61
2024/01/01 04:10:10;;;;;;;;;11.00;3.00;;;;;8.64;64.31;100357.25;5058593;28;45380;-62
2024/01/01 04:12:36;;;;;;;;;2.00;2.00;;;;;8.68;64.65;100359.00;5057880;28;45445;-63
2024/01/01 04:15:03;;;;;;;;;5.50;2.00;;;;;8.62;64.66;100351.16;5058389;28;45490;-62
2024/01/01 04:17:30;;;;;;;;;3.25;2.00;;;;;8.70;64.42;100365.09;5058733;28;45398;-62
2024/01/01 04:19:56;;;;;;;;;5.00;1.50;;;;;8.38;64.47;100311.00;5058735;28;46092;-62
2024/01/01 04:22:21;;;;;;;;;1.25;1.00;;;;;8.69;63.71;100386.88;5058177;28;45816;-62
2024/01/01 04:24:48;;;;;;;;;1.00;0.75;;;;;8.29;64.00;100300.53;5058933;28;45417;-61
2024/01/01 04:27:18;;;;;;;;;4.00;1.50;;;;;8.36;63.76;100320.56;5058594;28;45956;-61
2024/01/01 04:29:44;;;;;;;;;4.00;1.75;;;;;8.59;63.93;100345.91;5039822;28;48051;-62
2024/01/01 04:32:09;;;;;;;;;4.25;1.00;;;;;8.69;63.74;100389.47;5039725;28;45525;-62
2024/01/01 04:34:35;;;;;;;;;1.25;1.00;;;;;8.69;63.68;100384.25;5056267;28;46757;-62
2024/01/01 04:37:01;;;;;;;;;5.00;2.25;;;;;8.70;63.54;100388.59;5058175;28;45386;-63
2024/01/01 04:39:26;;;;;;;;;3.25;1.00;;;;;8.50;63.78;100346.75;5057336;28;46111;-62
2024/01/01 04:41:52;;;;;;;;;5.75;2.50;;;;;8.69;63.56;100376.41;5056573;28;45461;-63
2024/01/01 04:44:25;;;;;;;;;4.75;0.25;;;;;8.50;63.65;100359.81;5057288;28;45450;-62
2024/01/01 04:46:51;;;;;;;;;2.00;2.00;;;;;8.51;63.65;100369.38;5057552;28;45469;-63
2024/01/01 04:49:16;;;;;;;;;3.25;1.00;;;;;8.27;63.60;100336.16;5057724;28;45990;-62
2024/01/01 04:51:42;;;;;;;;;4.00;1.00;;;;;8.46;64.26;100366.72;5058241;28;45590;-64
2024/01/01 04:54:08;;;;;;;;;3.25;1.25;;;;;8.51;63.57;100379.81;5058997;28;45411;-62
2024/01/01 04:56:34;;;;;;;;;3.25;2.00;;;;;8.32;63.89;100342.28;5057519;28;45474;-61
2024/01/01 04:59:01;;;;;;;;;5.25;1.00;;;;;8.38;63.81;100360.59;5057195;28;46285;-61
2024/01/01 05:01:27;;;;;;;;;0.75;0.75;;;;;8.24;63.79;100346.59;5056765;28;45577;-63
2024/01/01 05:03:53;;;;;;;;;3.00;1.00;;;;;8.19;63.50;100337.88;5057233;28;45228;-61
2024/01/01 05:06:22;;;;;;;;;2.25;1.00;;;;;8.42;63.80;100390.19;5056957;28;45478;-62
2024/01/01 05:08:47;;;;;;;;;2.25;1.75;;;;;8.29;63.90;100371.84;5025120;28;45619;-62
2024/01/01 05:11:14;;;;;;;;;1.25;0.75;;;;;8.18;63.45;100365.69;5057300;28;45426;-62
2024/01/01 05:13:39;;;;;;;;;3.75;1.00;;;;;8.42;64.02;100392.81;5056671;28;45394;-62
2024/01/01 05:16:09;;;;;;;;;1.00;1.00;;;;;8.44;63.84;100404.13;5058186;28;45281;-62
2024/01/01 05:18:35;;;;;;;;;3.75;1.50;;;;;8.45;63.91;100406.75;5056229;28;45505;-61
2024/01/01 05:21:01;;;;;;;;;1.50;0.50;;;;;8.32;64.02;100384.03;5056998;28;45347;-63
2024/01/01 05:23:27;;;;;;;;;1.25;1.00;;;;;8.02;63.69;100341.25;5058423;28;45692;-62
2024/01/01 05:25:53;;;;;;;;;2.75;2.25;;;;;8.16;64.12;100361.31;5039205;28;45375;-64
2024/01/01 05:28:21;;;;;;;;;3.75;1.75;;;;;8.39;64.13;100405.81;5054425;28;46319;-64
2024/01/01 05:30:47;;;;;;;;;1.00;0.00;;;;;8.33;64.33;100409.28;5056779;28;45814;-63
2024/01/01 05:33:13;;;;;;;;;4.00;2.50;;;;;8.32;63.85;100401.44;5057963;28;45499;-63
2024/01/01 05:35:39;;;;;;;;;5.00;1.00;;;;;8.00;64.14;100368.19;5057404;28;45500;-63
2024/01/01 05:38:04;;;;;;;;;4.75;1.00;;;;;8.34;64.30;100436.25;5049543;28;45711;-62
2024/01/01 05:40:38;;;;;;;;;3.25;1.00;;;;;8.13;64.46;100393.47;5057789;28;45581;-63
2024/01/01 05:43:04;;;;;;;;;4.25;0.75;;;;;8.14;64.64;100396.94;5058017;28;45469;-62
2024/01/01 05:45:30;;;;;;;;;0.75;0.75;;;;;8.31;64.60;100431.88;5058003;28;45429;-65
2024/01/01 05:47:55;;;;;;;;;1.00;1.00;;;;;8.32;64.66;100433.59;5055621;28;46114;-63
2024/01/01 05:50:30;;;;;;;;;2.00;1.00;;;;;8.00;64.80;100391.66;5057637;28;45406;-64
2024/01/01 05:52:58;;;;;;;;;1.00;1.00;;;;;8.19;64.64;100437.03;5057658;28;45901;-64
2024/01/01 05:55:23;;;;;;;;;1.75;1.25;;;;;8.31;64.92;100442.31;5049731;28;45434;-67
2024/01/01 05:57:49;;;;;;;;;4.00;1.00;;;;;8.19;64.81;100437.03;5056803;28;46252;-66
2024/01/01 06:00:15;;;;;;;;;2.50;1.00;;;;;8.14;64.96;100430.88;5057836;28;45417;-63
2024/01/01 06:02:40;;;;;;;;;1.00;1.00;;;;;8.25;65.17;100455.31;5056479;28;45509;-63
2024/01/01 06:05:10;;;;;;;;;2.00;2.00;;;;;8.06;65.59;100436.03;5056361;28;45570;-61
2024/01/01 06:07:36;;;;;;;;;1.00;1.00;;;;;7.91;65.38;100420.28;5056961;28;46426;-61
2024/01/01 06:10:04;;;;;;;;;1.75;1.00;;;;;8.11;65.60;100455.19;5057207;28;45462;-62
2024/01/01 06:12:30;;;;;;;;;1.25;0.25;;;;;8.05;65.42;100450.81;5057377;28;45559;-65
2024/01/01 06:15:05;;;;;;;;;4.75;1.25;;;;;7.85;65.40;100408.94;5056316;28;45305;-66
2024/01/01 06:17:31;;;;;;;;;1.00;1.00;;;;;8.11;65.58;100454.34;5056123;28;45527;-64
2024/01/01 06:19:57;;;;;;;;;1.50;1.50;;;;;7.93;65.66;100434.22;5055682;28;45365;-63
2024/01/01 06:22:23;;;;;;;;;3.25;2.00;;;;;8.16;66.09;100465.66;5055847;28;45532;-61
2024/01/01 06:24:48;;;;;;;;;1.50;1.00;;;;;8.12;65.61;100451.75;5039740;28;45569;-61
2024/01/01 06:27:14;;;;;;;;;5.25;0.50;;;;;8.17;65.72;100465.69;5039266;28;46156;-67
2024/01/01 06:29:39;;;;;;;;;2.75;0.25;;;;;8.14;65.88;100459.56;5057572;28;45500;-67
2024/01/01 06:32:06;;;;;;;;;4.00;1.00;;;;;8.18;65.85;100467.44;5038328;28;45512;-64
2024/01/01 06:34:32;;;;;;;;;2.75;1.00;;;;;8.20;65.61;100473.53;5056167;28;45387;-65
2024/01/01 06:36:57;;;;;;;;;3.00;1.75;;;;;8.15;65.83;100454.38;5037561;28;48232;-63
2024/01/01 06:39:29;;;;;;;;;5.25;2.00;;;;;8.14;65.77;100478.72;5055942;28;45386;-67
2024/01/01 06:41:54;;;;;;;;;3.00;1.00;;;;;8.02;66.16;100461.25;5059669;28;45355;-66
2024/01/01 06:44:25;;;;;;;;;3.75;0.00;;;;;7.86;65.86;100434.16;5060426;28;45492;-64
2024/01/01 06:46:50;;;;;;;;;0.25;0.00;;;;;8.18;66.22;100482.22;5060037;28;46751;-64
2024/01/01 06:49:16;;;;;;;;;7.00;1.50;;;;;8.16;65.82;100490.03;5060557;28;45285;-67
2024/01/01 06:51:56;;;;;;;;;2.75;1.50;;;;;8.04;66.19;100477.78;5059965;28;45403;-65
2024/01/01 06:54:22;;;;;;;;;1.00;1.00;;;;;8.19;66.04;100489.19;5059861;28;45738;-68
2024/01/01 06:56:48;;;;;;;;;2.50;0.25;;;;;8.21;66.36;100517.03;5059480;28;45455;-61
2024/01/01 06:59:26;;;;;;;;;2.75;2.00;;;;;8.04;65.78;100476.88;5058932;28;45354;-61
2024/01/01 07:01:52;;;;;;;;;3.00;1.00;;;;;8.19;66.33;100530.94;5060415;28;45743;-61
2024/01/01 07:04:18;;;;;;;;;2.25;1.50;;;;;8.08;66.21;100508.22;5060820;28;45336;-61
2024/01/01 07:06:50;;;;;;;;;1.75;1.25;;;;;8.11;66.36;100543.88;5059328;28;46238;-62
2024/01/01 07:09:16;;;;;;;;;1.50;1.25;;;;;8.14;66.42;100554.38;5059641;28;45773;-62
2024/01/01 07:11:49;;;;;;;;;2.50;1.00;;;;;8.11;66.41;100553.47;5059498;28;45460;-63
2024/01/01 07:14:14;;;;;;;;;3.00;1.25;;;;;8.13;66.54;100551.75;5059189;28;45542;-61
2024/01/01 07:16:40;;;;;;;;;2.00;1.25;;;;;8.12;66.51;100544.78;5040515;28;46474;-62
2024/01/01 07:19:07;;;;;;;;;6.25;1.50;;;;;8.16;66.61;100546.53;5058844;28;45877;-63
2024/01/01 07:21:32;;;;;;;;;4.00;2.25;;;;;8.08;66.51;100529.09;5059201;28;45750;-64
2024/01/01 07:24:01;;;;;;;;;3.00;1.00;;;;;8.21;66.31;100552.66;5059088;28;45382;-64
2024/01/01 07:26:30;;;;;;;;;4.00;1.00;;;;;8.17;66.43;100556.13;5059314;28;45454;-64
2024/01/01 07:28:59;;;;;;;;;0.25;0.25;;;;;7.87;66.18;100510.63;5058771;28;45401;-65
2024/01/01 07:31:25;;;;;;;;;5.00;0.75;;;;;8.15;66.59;100565.69;5059584;28;45521;-63
2024/01/01 07:33:54;;;;;;;;;3.50;0.75;;;;;8.10;66.57;100546.50;5058612;28;45387;-63
2024/01/01 07:36:20;;;;;;;;;1.75;0.25;;;;;8.11;66.40;100556.94;5058674;28;46624;-62
2024/01/01 07:38:46;;;;;;;;;1.25;1.25;;;;;8.21;66.24;100565.72;5058885;28;45329;-64
2024/01/01 07:41:12;;;;;;;;;5.75;1.00;;;;;8.17;66.51;100559.59;5059063;28;45565;-65
2024/01/01 07:43:37;;;;;;;;;2.00;0.00;;;;;8.21;66.54;100565.72;5040602;28;45384;-63
2024/01/01 07:46:10;;;;;;;;;3.25;1.25;;;;;8.00;66.53;100527.28;5058132;28;46794;-62
2024/01/01 07:48:36;;;;;;;;;1.75;1.50;;;;;8.21;66.69;100568.31;5058719;28;45449;-64
2024/01/01 07:51:03;;;;;;;;;8.00;2.00;;;;;7.92;65.74;100527.19;5057113;28;45355;-62
2024/01/01 07:53:28;;;;;;;;;3.00;1.00;;;;;8.21;65.85;100570.94;5058532;28;45600;-64
2024/01/01 07:55:54;;;;;;;;;9.50;1.50;;;;;7.84;66.07;100508.88;5059135;28;45762;-62
2024/01/01 07:58:20;;;;;;;;;4.50;1.25;;;;;8.32;66.25;100584.09;5058457;28;45494;-63
2024/01/01 08:00:45;;;;;;;;;2.00;2.00;;;;;8.31;66.06;100572.78;5058605;28;45576;-63
2024/01/01 08:03:11;;;;;;;;;0.00;0.00;;;;;8.33;66.06;100584.13;5043492;28;45320;-67
2024/01/01 08:05:41;;;;;;;;;5.25;2.00;;;;;8.11;66.56;100550.84;5025293;28;46951;-64
2024/01/01 08:08:08;;;;;;;;;7.00;2.00;;;;;8.37;66.08;100587.59;5042743;28;45469;-63
2024/01/01 08:10:34;;;;;;;;;3.75;1.50;;;;;8.31;66.17;100575.41;5042438;28;45462;-64
2024/01/01 08:12:59;;;;;;;;;3.00;1.00;;;;;8.42;66.00;100614.66;5051774;28;45378;-65
2024/01/01 08:15:25;;;;;;;;;1.00;1.00;;;;;8.45;65.90;100607.72;5038516;28;46725;-63
2024/01/01 08:17:50;;;;;;;;;2.00;1.00;;;;;8.46;66.02;100608.59;5038207;28;45454;-62
2024/01/01 08:20:16;;;;;;;;;2.00;1.00;;;;;8.34;66.15;100601.50;5044110;28;45530;-62
2024/01/01 08:22:42;;;;;;;;;3.75;1.75;;;;;8.41;66.04;100615.53;5056843;28;45568;-63
2024/01/01 08:25:08;;;;;;;;;2.00;2.00;;;;;8.46;66.23;100619.03;5048133;28;45871;-63
2024/01/01 08:27:34;;;;;;;;;4.00;2.00;;;;;8.32;65.87;100591.91;5047548;28;45611;-65
2024/01/01 08:29:59;;;;;;;;;1.75;0.25;;;;;8.51;65.83;100625.16;5047961;28;45467;-64
2024/01/01 08:32:25;;;;;;;;;3.75;1.75;;;;;8.55;65.88;100633.91;5045992;28;45556;-62
2024/01/01 08:34:57;;;;;;;;;3.50;2.00;;;;;8.27;65.93;100592.75;5046775;28;45995;-63
2024/01/01 08:37:35;;;;;;;;;1.25;1.25;;;;;8.46;66.09;100629.47;5050129;28;45535;-63
2024/01/01 08:40:04;;;;;;;;;1.75;1.00;;;;;8.27;66.36;100597.09;5044879;28;45371;-63
2024/01/01 08:42:30;;;;;;;;;3.25;1.50;;;;;8.45;66.02;100626.00;5051607;28;45521;-62
2024/01/01 08:44:55;;;;;;;;;4.00;1.50;;;;;8.60;66.17;100642.66;5048574;28;46129;-61
2024/01/01 08:47:21;;;;;;;;;2.75;2.00;;;;;8.63;66.31;100650.50;5047477;28;45390;-62
2024/01/01 08:49:47;;;;;;;;;2.50;1.50;;;;;8.66;66.28;100650.53;5050455;28;45492;-63
2024/01/01 08:52:18;;;;;;;;;4.25;2.00;;;;;8.69;65.82;100654.06;5052876;28;45809;-62
2024/01/01 08:54:44;;;;;;;;;2.50;1.00;;;;;8.72;65.92;100657.56;5050901;28;45609;-62
2024/01/01 08:57:10;;;;;;;;;5.00;1.50;;;;;8.75;65.64;100658.44;5054810;28;45533;-62
2024/01/01 08:59:35;;;;;;;;;3.00;1.50;;;;;8.77;65.95;100661.94;5053382;28;45548;-61
2024/01/01 09:02:02;;;;;;;;;4.75;2.00;;;;;8.76;65.78;100649.75;5052626;28;45345;-62
2024/01/01 09:04:41;;;;;;;;;2.25;2.25;;;;;8.84;65.78;100661.13;5036255;28;46668;-61
2024/01/01 09:07:07;;;;;;;;;3.75;2.00;;;;;8.86;65.49;100653.31;5051669;28;46340;-63
2024/01/01 09:09:34;;;;;;;;;3.75;2.00;;;;;8.92;65.64;100650.72;5054306;28;45321;-63
2024/01/01 09:12:04;;;;;;;;;5.25;2.75;;;;;8.98;65.21;100636.88;5031971;28;45904;-63
2024/01/01 09:14:30;;;;;;;;;6.00;5.00;;;;;8.88;65.01;100602.84;5041907;28;46461;-62
2024/01/01 09:16:55;;;;;;;;;4.00;1.25;;;;;9.20;64.68;100630.88;5053849;28;45741;-62
2024/01/01 09:19:21;;;;;;;;;3.75;2.00;;;;;9.47;64.03;100658.06;5056638;28;45438;-63
2024/01/01 09:21:47;;;;;;;;;5.00;3.00;;;;;9.40;63.92;100614.47;5055485;28;45493;-63
2024/01/01 09:24:12;;;;;;;;;3.50;1.00;;;;;9.81;63.16;100658.22;5045415;28;46143;-64
2024/01/01 09:26:46;;;;;;;;;8.00;2.00;;;;;10.10;62.64;100679.25;5047627;28;45363;-63
2024/01/01 09:29:12;;;;;;;;;2.50;1.00;;;;;10.15;61.77;100646.97;5030277;28;45531;-62
2024/01/01 09:31:53;;;;;;;;;2.50;2.00;;;;;10.31;61.02;100673.22;5049911;28;46147;-62
2024/01/01 09:34:23;;;;;;;;;3.00;1.75;;;;;10.52;61.46;100678.50;5050395;28;46540;-63
2024/01/01 09:36:53;;;;;;;;;3.25;2.50;;;;;10.94;60.23;100703.00;5051326;28;45732;-65
2024/01/01 09:39:24;;;;;;;;;3.67;1.67;;;;;10.92;60.04;100696.00;5047523;28;45382;-65
2024/01/01 09:41:52;;;;;;;;;3.50;2.00;;;;;10.75;59.52;100664.56;5048628;28;45819;-62
2024/01/01 09:44:18;;;;;;;;;2.25;1.00;;;;;10.97;59.68;100708.22;5049238;28;46216;-63
2024/01/01 09:46:48;;;;;;;;;2.00;1.00;;;;;10.91;59.20;100716.06;5048925;28;45497;-62
2024/01/01 09:49:21;;;;;;;;;3.00;1.00;;;;;10.76;59.64;100711.69;5038546;28;45912;-62
2024/01/01 09:51:47;;;;;;;;;4.33;1.00;;;;;10.63;60.27;100712.56;5046712;28;45880;-63
2024/01/01 09:54:13;;;;;;;;;5.33;2.00;;;;;10.40;60.56;100697.69;5048783;28;46383;-62
2024/01/01 09:56:38;;;;;;;;;2.33;1.67;;;;;10.44;60.88;100723.88;5049694;28;45813;-63
2024/01/01 09:59:31;;;;;;;;;2.67;2.00;;;;;10.39;60.61;100710.75;5051003;28;45607;-62
2024/01/01 10:02:16;;;;;;;;;5.33;2.00;;;;;10.30;61.39;100709.00;5050343;28;45922;-67
2024/01/01 10:04:42;;;;;;;;;2.25;2.00;;;;;10.16;61.71;100714.16;5052854;28;46188;-67
2024/01/01 10:08:06;;;;;;;;;5.00;2.75;;;;;10.12;61.99;100707.16;5048353;28;45442;-65
2024/01/01 10:10:33;;;;;;;;;2.50;1.00;;;;;10.11;62.04;100701.94;5019818;28;46532;-63
2024/01/01 10:13:13;;;;;;;;;2.67;1.00;;;;;10.11;61.94;100712.41;5034031;28;45600;-62
2024/01/01 10:15:42;;;;;;;;;2.00;1.00;;;;;10.11;61.81;100709.81;5052631;28;45480;-62
2024/01/01 10:18:34;;;;;;;;;3.00;1.00;;;;;10.15;62.32;100707.16;5054272;28;45541;-62
2024/01/01 10:21:12;;;;;;;;;3.00;3.00;;;;;10.20;62.34;100701.94;5028714;28;45415;-65
2024/01/01 10:24:15;;;;;;;;;5.50;1.00;;;;;10.15;62.22;100695.84;5054694;28;45347;-68
2024/01/01 10:26:44;;;;;;;;;5.25;2.00;;;;;10.14;62.62;100710.66;5040912;28;46196;-68
2024/01/01 10:30:15;;;;;;;;;3.00;1.50;;;;;10.01;62.29;100701.00;5037197;28;45589;-63
2024/01/01 10:32:43;;;;;;;;;1.75;1.25;;;;;9.95;63.01;100696.63;4989132;28;45671;-67
2024/01/01 10:35:12;;;;;;;;;3.00;1.75;;;;;9.98;63.28;100704.50;5005252;28;45436;-64
2024/01/01 10:37:39;;;;;;;;;1.75;1.75;;;;;10.02;63.10;100701.91;5052740;28;46315;-62
2024/01/01 10:40:06;;;;;;;;;3.00;1.75;;;;;10.05;63.48;100691.44;5056030;28;45615;-62
2024/01/01 10:42:52;;;;;;;;;2.50;1.00;;;;;10.05;63.44;100691.44;5054414;28;45285;-62
2024/01/01 10:45:18;;;;;;;;;8.25;2.00;;;;;10.15;62.87;100687.97;5046802;28;45493;-63
2024/01/01 10:47:54;;;;;;;;;2.75;2.00;;;;;10.16;63.04;100671.44;5048180;28;45477;-67
2024/01/01 10:50:27;;;;;;;;;2.75;1.00;;;;;10.37;62.68;100688.97;5043352;28;45526;-62
2024/01/01 10:53:10;;;;;;;;;3.50;2.00;;;;;10.37;62.47;100684.59;5046741;28;45455;-64
2024/01/01 10:55:54;;;;;;;;;4.00;2.00;;;;;10.61;62.53;100689.00;5025030;28;45504;-63
2024/01/01 10:58:55;;;;;;;;;3.33;1.67;;;;;10.69;61.49;100680.25;5047995;28;46523;-65
2024/01/01 11:01:22;;;;;;;;;1.00;1.00;;;;;10.75;61.85;100696.00;5046509;28;45409;-63
2024/01/01 11:03:49;;;;;;;;;2.75;2.00;;;;;10.83;61.49;100694.25;5050471;28;45471;-63
2024/01/01 11:06:41;;;;;;;;;3.67;1.67;;;;;12.55;58.70;100688.44;5049768;28;45268;-62
2024/01/01 11:09:31;;;;;;;;;5.00;1.00;;;;;12.57;57.45;100688.44;5041846;28;45471;-62
2024/01/01 11:11:59;;;;;;;;;0.33;0.00;;;;;12.17;57.60;100665.94;5042158;28;45648;-62
2024/01/01 11:14:38;;;;;;;;;3.00;2.00;;;;;12.03;57.85;100681.78;5042974;28;45592;-63
2024/01/01 11:17:06;;;;;;;;;2.00;1.00;;;;;11.62;58.34;100643.41;5025151;28;45335;-65
2024/01/01 11:19:43;;;;;;;;;3.67;2.33;;;;;11.90;58.38;100694.94;5044158;28;45427;-64
2024/01/01 11:22:20;;;;;;;;;3.67;1.00;;;;;11.81;58.63;100695.81;5053231;28;45435;-62
2024/01/01 11:24:53;;;;;;;;;2.67;2.00;;;;;11.79;59.09;100690.59;5052452;28;45526;-63
2024/01/01 11:27:32;;;;;;;;;3.33;1.00;;;;;12.01;58.43;100687.91;5039564;28;45529;-62
2024/01/01 11:30:11;;;;;;;;;1.33;1.33;;;;;12.26;57.93;100692.13;5060039;28;45604;-65
2024/01/01 11:32:37;;;;;;;;;5.67;2.00;;;;;12.31;58.28;100689.47;5059955;28;45419;-62
2024/01/01 11:35:17;;;;;;;;;4.67;2.00;;;;;12.43;57.24;100685.91;5059744;28;45407;-63
2024/01/01 11:37:44;;;;;;;;;1.33;1.00;;;;;12.43;57.83;100686.81;5058879;28;45333;-62
2024/01/01 11:40:11;;;;;;;;;2.00;2.00;;;;;12.02;57.54;100617.00;5057971;28;45470;-62